Time;durP1;ratioP1;P1;durP2;ratioP2;P2;SDS_P1;SDS_P2;PMS_P1;PMS_P2;Temp;Humidity;BMP_temperature;BMP_pressure;BME280_temperature;BME280_humidity;BME280_pressure;Samples;Min_cycle;Max_cycle;Signal;HPM_P1;HPM_P2
2021/04/28 00:00:41;;;;;;;58.28;27.50;;;;;;;1.15;47.32;100117.97;147087;1148;104652;-82
2021/04/28 00:03:44;;;;;;;55.80;26.03;;;;;;;1.12;47.01;100115.55;146895;1148;104576;-82
2021/04/28 00:06:48;;;;;;;54.03;26.40;;;;;;;1.11;47.40;100118.27;146815;1147;104575;-82
2021/04/28 00:09:51;;;;;;;59.23;24.47;;;;;;;1.08;47.37;100108.80;146915;1147;104473;-81
2021/04/28 00:12:55;;;;;;;56.60;25.73;;;;;;;1.09;47.02;100114.89;147015;1147;104662;-79
2021/04/28 00:15:58;;;;;;;54.25;25.45;;;;;;;1.02;46.93;100111.81;147235;1148;104569;-79
2021/04/28 00:19:02;;;;;;;51.37;23.67;;;;;;;0.91;47.07;100114.27;147219;1147;104575;-80
2021/04/28 00:22:06;;;;;;;51.08;23.02;;;;;;;0.90;47.45;100109.94;147233;1148;104578;-77
2021/04/28 00:25:13;;;;;;;46.95;22.00;;;;;;;0.90;47.40;100115.19;147208;1147;104476;-75
2021/04/28 00:28:16;;;;;;;49.42;23.92;;;;;;;0.91;47.88;100107.22;147180;1148;104636;-78
2021/04/28 00:31:20;;;;;;;43.00;19.77;;;;;;;0.89;47.41;100100.38;147205;1148;104540;-78
2021/04/28 00:34:23;;;;;;;49.77;23.83;;;;;;;0.90;47.34;100107.31;147189;1148;104562;-77
2021/04/28 00:37:26;;;;;;;41.75;19.60;;;;;;;0.91;47.65;100106.38;147059;1147;104819;-79
2021/04/28 00:40:31;;;;;;;53.87;24.52;;;;;;;0.91;47.86;100111.64;147208;1147;104579;-77
2021/04/28 00:43:35;;;;;;;47.10;21.70;;;;;;;0.86;47.87;100108.44;147183;1147;104460;-83
2021/04/28 00:46:40;;;;;;;46.98;23.30;;;;;;;0.86;47.92;100113.69;147021;1148;104478;-86
2021/04/28 00:49:43;;;;;;;45.40;21.90;;;;;;;0.83;47.80;100103.36;146989;1148;104573;-83
2021/04/28 00:52:47;;;;;;;38.50;17.55;;;;;;;0.80;47.66;100099.16;147069;1147;104484;-80
2021/04/28 00:55:52;;;;;;;43.08;21.68;;;;;;;0.77;47.97;100101.95;147216;1147;104594;-83
2021/04/28 00:58:55;;;;;;;38.23;17.92;;;;;;;0.72;47.92;100102.25;147202;1147;104529;-80
2021/04/28 01:02:00;;;;;;;44.13;21.97;;;;;;;0.67;47.80;100101.68;147336;1148;104588;-80
2021/04/28 01:05:13;;;;;;;43.73;20.20;;;;;;;0.67;47.89;100108.72;147244;1147;104483;-85
2021/04/28 01:08:19;;;;;;;39.30;18.62;;;;;;;0.64;47.98;100099.26;147207;1148;104983;-83
2021/04/28 01:11:23;;;;;;;42.08;20.08;;;;;;;0.67;47.84;100101.68;147087;1147;104514;-86
2021/04/28 01:14:33;;;;;;;39.53;18.48;;;;;;;0.64;48.08;100098.42;146960;1148;104602;-87
2021/04/28 01:17:36;;;;;;;48.28;21.93;;;;;;;0.61;47.79;100098.59;147035;1147;104657;-86
2021/04/28 01:20:40;;;;;;;42.80;19.35;;;;;;;0.58;48.32;100094.39;147106;1148;104577;-87
2021/04/28 01:23:44;;;;;;;40.98;21.40;;;;;;;0.56;48.16;100096.27;147296;1148;104533;-86
2021/04/28 01:26:51;;;;;;;43.68;21.23;;;;;;;0.43;48.46;100097.94;147000;1148;104451;-85
2021/04/28 01:29:55;;;;;;;35.65;18.50;;;;;;;0.41;48.29;100089.31;147447;1148;104543;-84
2021/04/28 01:32:59;;;;;;;41.25;19.90;;;;;;;0.42;48.60;100086.57;146963;1148;104609;-84
2021/04/28 01:36:05;;;;;;;34.10;18.37;;;;;;;0.44;48.28;100086.48;146992;1148;104647;-84
2021/04/28 01:39:13;;;;;;;45.30;21.47;;;;;;;0.46;48.91;100076.73;146962;1148;104585;-85
2021/04/28 01:42:18;;;;;;;37.45;19.10;;;;;;;0.49;48.43;100076.56;147203;1146;104511;-80
2021/04/28 01:45:22;;;;;;;31.95;15.93;;;;;;;0.46;48.53;100074.95;147195;1147;104623;-83
2021/04/28 01:48:26;;;;;;;40.70;19.17;;;;;;;0.45;48.85;100073.27;147354;1147;104612;-80
2021/04/28 01:51:30;;;;;;;33.65;17.17;;;;;;;0.41;48.55;100060.44;147205;1148;104607;-80
2021/04/28 01:54:34;;;;;;;43.68;21.93;;;;;;;0.39;48.92;100058.73;147112;1148;106095;-77
2021/04/28 01:57:37;;;;;;;41.35;20.90;;;;;;;0.39;48.53;100068.41;147225;1147;104560;-82
2021/04/28 02:00:51;;;;;;;33.60;17.45;;;;;;;0.39;49.06;100056.11;147033;1148;104655;-80
2021/04/28 02:03:56;;;;;;;38.17;19.12;;;;;;;0.38;48.81;100056.20;147220;1148;104594;-79
2021/04/28 02:07:00;;;;;;;32.40;16.57;;;;;;;0.35;49.06;100049.37;147216;1147;104492;-77
2021/04/28 02:10:06;;;;;;;39.00;18.98;;;;;;;0.35;49.25;100051.98;147197;1147;104457;-79
2021/04/28 02:13:12;;;;;;;38.08;18.37;;;;;;;0.35;49.04;100051.98;147003;1147;104569;-76
2021/04/28 02:16:16;;;;;;;32.17;16.67;;;;;;;0.32;48.92;100049.54;147258;1148;104895;-81
2021/04/28 02:19:22;;;;;;;40.28;18.87;;;;;;;0.33;49.18;100051.24;147296;1146;104510;-79
2021/04/28 02:22:29;;;;;;;30.45;15.95;;;;;;;0.31;49.30;100047.00;147261;1147;104502;-82
2021/04/28 02:25:45;;;;;;;33.92;16.85;;;;;;;0.30;49.26;100051.41;147143;1147;104543;-83
2021/04/28 02:28:50;;;;;;;30.62;16.62;;;;;;;0.29;49.52;100057.62;147217;1147;104454;-77
2021/04/28 02:31:53;;;;;;;30.80;16.97;;;;;;;0.27;49.39;100054.24;146906;1148;104567;-81
2021/04/28 02:35:02;;;;;;;36.20;18.05;;;;;;;0.23;49.78;100052.71;147033;1148;104986;-80
2021/04/28 02:38:24;;;;;;;32.00;15.90;;;;;;;0.24;49.66;100051.79;147187;1147;104453;-79
2021/04/28 02:41:42;;;;;;;31.27;16.48;;;;;;;0.22;49.61;100060.70;147143;1147;105473;-77
2021/04/28 02:44:48;;;;;;;33.97;18.07;;;;;;;0.22;49.87;100045.80;147200;1148;104583;-78
2021/04/28 02:47:54;;;;;;;28.57;15.17;;;;;;;0.21;49.90;100044.09;147031;1147;104630;-82
2021/04/28 02:51:00;;;;;;;32.45;16.32;;;;;;;0.17;49.82;100053.95;146902;1148;104484;-80
2021/04/28 02:54:05;;;;;;;32.85;16.77;;;;;;;0.08;49.10;100044.00;146818;1148;104581;-78
2021/04/28 02:57:09;;;;;;;29.82;17.12;;;;;;;0.08;50.00;100044.00;147111;1148;104541;-77
2021/04/28 03:00:16;;;;;;;34.45;19.55;;;;;;;0.07;49.52;100039.67;147212;1148;104503;-77
2021/04/28 03:03:20;;;;;;;27.10;14.90;;;;;;;0.08;50.01;100044.00;147254;1148;104576;-78
2021/04/28 03:06:29;;;;;;;28.93;14.63;;;;;;;0.08;50.25;100045.76;147248;1147;104547;-78
2021/04/28 03:09:36;;;;;;;31.57;16.57;;;;;;;0.09;49.80;100050.08;146830;1148;104545;-79
2021/04/28 03:12:41;;;;;;;28.47;15.32;;;;;;;0.07;49.39;100044.92;147256;1148;104606;-77
2021/04/28 03:15:47;;;;;;;30.37;15.23;;;;;;;0.07;50.11;100049.33;147141;1148;104578;-75
2021/04/28 03:18:52;;;;;;;33.83;17.57;;;;;;;0.06;49.71;100051.13;147586;1148;104572;-79
2021/04/28 03:21:55;;;;;;;31.17;16.62;;;;;;;0.04;50.18;100047.75;147434;1147;104461;-77
2021/04/28 03:24:59;;;;;;;30.27;17.43;;;;;;;0.01;49.83;100052.33;147317;1147;104487;-79
2021/04/28 03:28:03;;;;;;;25.37;14.38;;;;;;;0.05;50.23;100056.45;147504;1148;104653;-74
2021/04/28 03:31:06;;;;;;;31.30;16.07;;;;;;;0.01;50.58;100047.08;147303;1148;104535;-78
2021/04/28 03:34:10;;;;;;;33.08;15.95;;;;;;;0.09;50.16;100047.45;147301;1147;104571;-77
2021/04/28 03:37:14;;;;;;;30.68;15.63;;;;;;;0.15;50.00;100044.47;147495;1148;104516;-73
2021/04/28 03:40:21;;;;;;;31.42;16.65;;;;;;;0.17;50.49;100048.70;147150;1147;104629;-76
2021/04/28 03:43:25;;;;;;;25.15;14.53;;;;;;;0.18;50.42;100055.62;146883;1147;104581;-81
2021/04/28 03:46:28;;;;;;;31.55;16.35;;;;;;;0.29;50.27;100056.75;147020;1147;104572;-79
2021/04/28 03:49:33;;;;;;;29.77;15.38;;;;;;;0.38;50.49;100056.20;147115;1147;104620;-83
2021/04/28 03:52:36;;;;;;;25.40;13.58;;;;;;;0.47;50.75;100055.65;146982;1147;105044;-83
2021/04/28 03:55:57;;;;;;;;;;;;;;;0.63;50.71;100055.55;147070;1148;104488;-79
2021/04/28 03:59:00;;;;;;;25.15;13.75;;;;;;;0.80;50.49;100057.13;147194;1148;104511;-80
2021/04/28 04:02:04;;;;;;;27.10;15.40;;;;;;;0.95;50.61;100065.84;147199;1147;104579;-77
2021/04/28 04:05:33;;;;;;;26.52;14.87;;;;;;;1.10;50.42;100066.67;147138;1148;104644;-78
2021/04/28 04:08:47;;;;;;;27.93;16.10;;;;;;;1.22;50.54;100062.41;147199;1148;104496;-78
2021/04/28 04:11:52;;;;;;;26.82;15.85;;;;;;;1.36;50.59;100054.47;147165;1147;104572;-78
2021/04/28 04:15:00;;;;;;;29.42;15.23;;;;;;;1.54;50.30;100058.55;147042;1147;104499;-80
2021/04/28 04:18:05;;;;;;;27.50;15.20;;;;;;;1.66;50.71;100063.95;146790;1148;104575;-77
2021/04/28 04:21:20;;;;;;;26.60;15.83;;;;;;;1.85;51.54;100059.16;146757;1147;104617;-77
2021/04/28 04:24:35;;;;;;;25.77;15.80;;;;;;;2.06;50.42;100063.91;146795;1147;104570;-76
2021/04/28 04:27:45;;;;;;;27.13;15.80;;;;;;;2.28;50.64;100060.67;146884;1147;104521;-80
2021/04/28 04:31:14;;;;;;;26.10;15.43;;;;;;;2.52;51.33;100064.26;147063;1148;104497;-77
2021/04/28 04:34:50;;;;;;;27.32;16.37;;;;;;;2.83;51.28;100053.34;146765;1148;104687;-77
2021/04/28 04:38:11;;;;;;;;;;;;;;;3.13;50.82;100055.59;146803;1148;104575;-76
2021/04/28 04:41:46;;;;;;;26.02;14.38;;;;;;;3.41;50.83;100057.09;147149;1148;104649;-77
2021/04/28 04:45:15;;;;;;;23.50;14.28;;;;;;;3.70;50.81;100048.83;146807;1148;104572;-77
2021/04/28 04:48:19;;;;;;;23.12;14.35;;;;;;;3.92;51.00;100054.16;147017;1146;104498;-76
2021/04/28 04:51:22;;;;;;;21.68;13.22;;;;;;;4.14;49.99;100055.20;147149;1148;104488;-77
2021/04/28 04:54:25;;;;;;;19.95;12.88;;;;;;;4.33;50.37;100052.83;147154;1148;104643;-77
2021/04/28 04:57:29;;;;;;;19.02;12.00;;;;;;;4.56;50.28;100047.57;147106;1147;104591;-79
2021/04/28 05:00:32;;;;;;;19.42;11.95;;;;;;;4.76;49.98;100053.09;146861;1147;104451;-77
2021/04/28 05:03:35;;;;;;;18.32;11.00;;;;;;;4.95;49.71;100034.81;147032;1147;104495;-77
2021/04/28 05:06:38;;;;;;;19.53;11.80;;;;;;;5.14;49.40;100047.41;146832;1147;104481;-77
2021/04/28 05:09:41;;;;;;;20.88;11.63;;;;;;;5.33;49.25;100045.90;147202;1147;104575;-76
2021/04/28 05:12:46;;;;;;;18.70;10.75;;;;;;;5.47;48.67;100046.46;147019;1148;104503;-76
2021/04/28 05:15:50;;;;;;;17.23;11.20;;;;;;;5.62;47.81;100044.37;146971;1148;104526;-77
2021/04/28 05:18:53;;;;;;;21.27;11.18;;;;;;;5.79;48.91;100056.19;146788;1148;104684;-77
2021/04/28 05:21:56;;;;;;;19.75;11.65;;;;;;;5.94;49.14;100045.30;146978;1147;104953;-77
2021/04/28 05:25:01;;;;;;;16.97;10.53;;;;;;;6.04;48.34;100040.94;147170;1147;104618;-78
2021/04/28 05:28:13;;;;;;;17.80;10.95;;;;;;;6.17;47.82;100046.88;147233;1147;104560;-77
2021/04/28 05:31:16;;;;;;;18.15;10.88;;;;;;;6.29;48.02;100048.51;147187;1147;104556;-77
2021/04/28 05:34:19;;;;;;;17.43;10.73;;;;;;;6.42;47.42;100042.15;147318;1148;104464;-76
2021/04/28 05:37:22;;;;;;;14.78;9.88;;;;;;;6.50;47.57;100042.32;147276;1147;104499;-78
2021/04/28 05:40:26;;;;;;;18.77;10.53;;;;;;;6.59;48.33;100033.58;147145;1147;104553;-76
2021/04/28 05:43:29;;;;;;;16.87;10.53;;;;;;;6.65;46.96;100027.73;147192;1147;104523;-77
2021/04/28 05:46:32;;;;;;;20.82;10.58;;;;;;;6.73;47.97;100031.55;147118;1147;104684;-74
2021/04/28 05:49:36;;;;;;;17.37;10.55;;;;;;;6.80;47.89;100027.39;146736;1148;104550;-75
2021/04/28 05:52:39;;;;;;;16.75;10.80;;;;;;;6.87;47.47;100023.20;146782;1148;104575;-74
2021/04/28 05:55:42;;;;;;;17.45;10.43;;;;;;;6.90;47.04;100025.59;146822;1148;104519;-74
2021/04/28 05:58:45;;;;;;;15.60;10.38;;;;;;;6.96;47.49;100027.70;146960;1148;104611;-70
2021/04/28 06:01:48;;;;;;;17.92;10.48;;;;;;;7.03;47.25;100023.55;146748;1147;104456;-76
2021/04/28 06:04:52;;;;;;;16.87;10.90;;;;;;;7.11;46.93;100017.55;147184;1147;104476;-76
2021/04/28 06:07:55;;;;;;;16.55;11.03;;;;;;;7.16;47.60;100017.13;147165;1147;104569;-80
2021/04/28 06:10:59;;;;;;;16.30;10.83;;;;;;;7.20;46.78;100023.87;147225;1147;104739;-77
2021/04/28 06:14:02;;;;;;;15.27;9.90;;;;;;;7.25;47.25;100024.28;147208;1148;104526;-76
2021/04/28 06:17:06;;;;;;;16.07;10.32;;;;;;;7.33;47.35;100018.28;147198;1148;104844;-77
2021/04/28 06:20:12;;;;;;;15.37;9.80;;;;;;;7.40;46.11;100025.55;147272;1147;104440;-78
2021/04/28 06:23:15;;;;;;;14.63;10.05;;;;;;;7.46;46.47;100013.55;147805;1146;104589;-76
2021/04/28 06:26:18;;;;;;;15.03;9.70;;;;;;;7.51;45.45;100021.11;147323;1148;104559;-77
2021/04/28 06:29:22;;;;;;;15.07;9.40;;;;;;;7.57;45.73;100016.07;147752;1147;104482;-76
2021/04/28 06:32:25;;;;;;;15.28;9.18;;;;;;;7.65;46.97;100023.34;147668;1147;104500;-76
2021/04/28 06:35:28;;;;;;;13.32;8.85;;;;;;;7.73;46.77;100012.84;147364;1147;104559;-76
2021/04/28 06:38:31;;;;;;;14.20;9.53;;;;;;;7.83;45.74;100026.11;147527;1147;104471;-76
2021/04/28 06:41:34;;;;;;;13.35;8.88;;;;;;;7.92;45.74;100024.44;147635;1147;104611;-77
2021/04/28 06:44:37;;;;;;;14.33;8.93;;;;;;;8.00;45.45;100013.94;147788;1147;104581;-78
2021/04/28 06:47:41;;;;;;;13.38;9.08;;;;;;;8.07;46.07;100015.05;147733;1147;104476;-75
2021/04/28 06:50:44;;;;;;;12.07;8.58;;;;;;;8.18;46.72;100016.69;147728;1147;104575;-76
2021/04/28 06:53:47;;;;;;;12.07;8.40;;;;;;;8.28;46.00;100014.03;147627;1147;104556;-77
2021/04/28 06:56:50;;;;;;;11.77;8.10;;;;;;;8.35;45.51;100012.45;147392;1147;104625;-77
2021/04/28 06:59:53;;;;;;;12.07;8.30;;;;;;;8.42;45.03;100011.76;147659;1148;104538;-76
2021/04/28 07:02:58;;;;;;;11.83;7.87;;;;;;;8.52;45.07;100009.06;147185;1147;104471;-77
2021/04/28 07:06:01;;;;;;;14.28;8.40;;;;;;;8.59;44.47;100010.16;147172;1147;104593;-77
2021/04/28 07:09:05;;;;;;;12.98;8.08;;;;;;;8.69;45.48;100003.97;147239;1148;104506;-80
2021/04/28 07:12:09;;;;;;;11.75;7.80;;;;;;;8.80;45.61;100006.44;147163;1147;104617;-77
2021/04/28 07:15:13;;;;;;;13.32;8.05;;;;;;;8.91;44.82;100014.23;147072;1148;104450;-76
2021/04/28 07:18:16;;;;;;;11.43;7.33;;;;;;;8.99;44.70;99998.35;147190;1147;104682;-76
2021/04/28 07:21:19;;;;;;;14.68;7.92;;;;;;;9.10;44.23;100004.44;147128;1148;104550;-77
2021/04/28 07:24:23;;;;;;;11.33;8.23;;;;;;;9.17;43.81;100002.86;147254;1148;104565;-77
2021/04/28 07:27:26;;;;;;;9.95;7.28;;;;;;;9.23;43.64;100010.23;146889;1148;104912;-77
2021/04/28 07:30:29;;;;;;;11.18;7.47;;;;;;;9.34;44.09;100007.36;147046;1147;104477;-76
2021/04/28 07:33:32;;;;;;;10.98;7.70;;;;;;;9.42;44.20;100012.77;147137;1147;104452;-76
2021/04/28 07:36:36;;;;;;;11.67;7.60;;;;;;;9.52;43.79;100011.86;146996;1148;104492;-73
2021/04/28 07:39:40;;;;;;;10.15;7.03;;;;;;;9.59;43.41;100007.60;147130;1147;104476;-77
2021/04/28 07:42:43;;;;;;;12.53;7.85;;;;;;;9.65;42.88;100006.16;146992;1148;104486;-77
2021/04/28 07:45:46;;;;;;;11.45;7.28;;;;;;;9.70;43.37;100010.04;147001;1147;104633;-78
2021/04/28 07:48:49;;;;;;;9.83;7.00;;;;;;;9.76;43.30;100001.42;147034;1147;104572;-76
2021/04/28 07:51:53;;;;;;;12.55;7.40;;;;;;;9.82;42.06;100007.97;147135;1147;104477;-78
2021/04/28 07:54:56;;;;;;;10.48;7.15;;;;;;;9.90;42.74;100001.86;147154;1148;104889;-79
2021/04/28 07:58:00;;;;;;;12.30;7.92;;;;;;;9.98;42.46;100004.58;147084;1146;104474;-77
2021/04/28 08:01:03;;;;;;;9.85;7.10;;;;;;;10.05;42.72;100000.31;146881;1147;104428;-77
2021/04/28 08:04:07;;;;;;;10.82;7.17;;;;;;;10.15;42.00;100011.70;147172;1148;104490;-79
2021/04/28 08:07:10;;;;;;;8.43;5.93;;;;;;;10.22;41.33;99995.92;147243;1148;104574;-77
2021/04/28 08:10:14;;;;;;;9.43;6.50;;;;;;;10.28;40.71;99994.47;147205;1147;104568;-77
2021/04/28 08:13:17;;;;;;;10.30;6.12;;;;;;;10.31;41.07;99988.83;147109;1147;104616;-77
2021/04/28 08:16:20;;;;;;;9.40;5.78;;;;;;;10.36;40.53;99999.88;146941;1147;104515;-77
2021/04/28 08:19:24;;;;;;;7.03;5.10;;;;;;;10.43;39.98;99998.25;147227;1147;104569;-78
2021/04/28 08:22:28;;;;;;;8.03;5.05;;;;;;;10.46;40.00;99979.25;147156;1148;104592;-78
2021/04/28 08:25:31;;;;;;;9.08;5.37;;;;;;;10.50;38.39;99985.93;147390;1147;104565;-75
2021/04/28 08:28:40;;;;;;;5.97;4.75;;;;;;;10.53;39.51;99984.80;147245;1147;104630;-77
2021/04/28 08:31:43;;;;;;;7.15;5.37;;;;;;;10.59;38.85;99978.81;146862;1147;104479;-77
2021/04/28 08:34:47;;;;;;;7.83;5.37;;;;;;;10.65;38.68;99983.50;147139;1147;104483;-76
2021/04/28 08:37:50;;;;;;;7.95;5.50;;;;;;;10.74;39.28;99984.36;147179;1147;104572;-78
2021/04/28 08:40:53;;;;;;;8.28;5.80;;;;;;;10.78;39.68;99980.40;147164;1148;104508;-80
2021/04/28 08:43:56;;;;;;;7.60;5.50;;;;;;;10.82;39.00;99976.41;147160;1147;104649;-77
2021/04/28 08:46:59;;;;;;;8.38;5.30;;;;;;;10.89;39.61;99984.59;147182;1147;104629;-77
2021/04/28 08:50:03;;;;;;;8.07;5.47;;;;;;;10.93;38.42;99978.78;147157;1148;104535;-76
2021/04/28 08:53:07;;;;;;;9.30;6.07;;;;;;;10.96;38.37;99981.11;147181;1147;104672;-76
2021/04/28 08:56:10;;;;;;;9.20;6.20;;;;;;;11.02;39.48;99973.45;147226;1147;104460;-77
2021/04/28 08:59:13;;;;;;;10.90;6.25;;;;;;;11.05;38.19;99981.13;147112;1148;104751;-77
2021/04/28 09:02:21;;;;;;;8.35;6.25;;;;;;;11.10;39.25;99966.28;146871;1147;104593;-77
2021/04/28 09:05:25;;;;;;;9.43;6.80;;;;;;;11.16;39.25;99960.31;147169;1147;104575;-76
2021/04/28 09:08:28;;;;;;;8.75;5.65;;;;;;;11.22;38.67;99961.49;146775;1147;104480;-77
2021/04/28 09:11:43;;;;;;;8.60;5.53;;;;;;;11.26;38.07;99960.16;146928;1148;104498;-77
2021/04/28 09:14:47;;;;;;;8.37;5.77;;;;;;;11.32;38.29;99959.49;147148;1147;104577;-77
2021/04/28 09:17:53;;;;;;;8.20;6.00;;;;;;;11.38;37.82;99945.47;146909;1148;104497;-77
2021/04/28 09:22:04;;;;;;;8.58;5.37;;;;;;;11.49;38.36;99943.46;146903;1147;104684;-77
2021/04/28 09:25:36;;;;;;;7.00;5.53;;;;;;;11.56;37.98;99939.95;147060;1147;104577;-77
2021/04/28 09:28:59;;;;;;;9.03;5.90;;;;;;;11.64;37.13;99944.47;146636;1147;104590;-77
2021/04/28 09:32:08;;;;;;;9.15;5.72;;;;;;;11.67;36.67;99938.80;147049;1148;104969;-77
2021/04/28 09:35:15;;;;;;;9.03;5.92;;;;;;;11.67;37.07;99933.45;147180;1148;104560;-77
2021/04/28 09:38:18;;;;;;;11.53;6.33;;;;;;;11.76;37.04;99932.45;146754;1148;104568;-77
2021/04/28 09:41:41;;;;;;;9.37;6.20;;;;;;;11.83;37.35;99924.57;147128;1148;104531;-74
2021/04/28 09:44:48;;;;;;;10.23;7.55;;;;;;;11.84;36.51;99917.41;146841;1147;104453;-77
2021/04/28 09:47:52;;;;;;;9.50;6.50;;;;;;;11.82;35.53;99914.05;146861;1148;104613;-78
2021/04/28 09:51:05;;;;;;;8.87;6.40;;;;;;;11.84;36.70;99909.39;146835;1148;104572;-76
2021/04/28 09:54:14;;;;;;;9.10;6.17;;;;;;;11.90;36.31;99908.73;146870;1148;104571;-77
2021/04/28 09:57:19;;;;;;;10.05;5.92;;;;;;;11.98;37.09;99906.03;146730;1147;104467;-77
2021/04/28 10:00:24;;;;;;;17.35;6.42;;;;;;;12.02;36.17;99902.01;147097;1148;104487;-78
2021/04/28 10:03:43;;;;;;;11.88;6.10;;;;;;;12.05;35.76;99892.80;146771;1148;104611;-78
2021/04/28 10:06:48;;;;;;;9.18;5.45;;;;;;;12.08;35.85;99897.82;146983;1147;104490;-80
2021/04/28 10:09:52;;;;;;;9.37;5.73;;;;;;;12.11;35.68;99898.31;146836;1147;104572;-78
2021/04/28 10:12:55;;;;;;;8.50;5.97;;;;;;;12.14;35.36;99897.13;146964;1148;104576;-77
2021/04/28 10:15:58;;;;;;;10.83;5.53;;;;;;;12.23;36.33;99884.57;147167;1147;104486;-77
2021/04/28 10:19:02;;;;;;;7.37;6.00;;;;;;;12.29;34.89;99878.52;146861;1147;104719;-77
2021/04/28 10:22:07;;;;;;;7.90;5.67;;;;;;;12.32;35.45;99891.56;147219;1147;104511;-77
2021/04/28 10:25:14;;;;;;;9.00;6.22;;;;;;;12.36;36.02;99884.86;146932;1147;104480;-77
2021/04/28 10:28:18;;;;;;;10.55;5.55;;;;;;;12.36;34.54;99880.33;147071;1147;104889;-79
2021/04/28 10:31:22;;;;;;;8.97;5.70;;;;;;;12.37;34.77;99868.64;147038;1147;104444;-78
2021/04/28 10:34:29;;;;;;;12.15;6.87;;;;;;;12.37;34.32;99873.98;146967;1147;104627;-77
2021/04/28 10:37:35;;;;;;;8.35;5.92;;;;;;;12.44;34.98;99865.26;146846;1147;104447;-77
2021/04/28 10:40:39;;;;;;;10.28;5.80;;;;;;;12.52;34.74;99863.36;146830;1147;104578;-77
2021/04/28 10:43:42;;;;;;;8.95;6.37;;;;;;;12.56;35.31;99867.34;146881;1147;104478;-77
2021/04/28 10:46:45;;;;;;;9.88;6.10;;;;;;;12.65;34.16;99867.32;147026;1147;104572;-77
2021/04/28 10:50:20;;;;;;;7.87;5.97;;;;;;;12.69;35.53;99853.39;146875;1147;104559;-77
2021/04/28 10:53:27;;;;;;;8.93;6.05;;;;;;;12.72;34.51;99863.77;146951;1148;104570;-79
2021/04/28 10:56:31;;;;;;;8.28;5.92;;;;;;;12.73;34.50;99848.53;147176;1148;104578;-78
2021/04/28 10:59:35;;;;;;;9.35;5.97;;;;;;;12.72;34.61;99853.05;147172;1147;104447;-76
2021/04/28 11:02:38;;;;;;;8.90;6.70;;;;;;;12.79;34.46;99853.16;146978;1147;104498;-77
2021/04/28 11:05:42;;;;;;;10.00;6.43;;;;;;;12.85;34.70;99848.95;146943;1148;104613;-78
2021/04/28 11:08:45;;;;;;;11.77;6.67;;;;;;;12.87;34.09;99849.60;147061;1146;104562;-76
2021/04/28 11:11:57;;;;;;;12.58;6.60;;;;;;;12.90;33.88;99850.08;147008;1147;104611;-77
2021/04/28 11:15:00;;;;;;;9.65;5.97;;;;;;;12.96;34.65;99833.30;146925;1148;104578;-77
2021/04/28 11:18:30;;;;;;;12.23;6.37;;;;;;;13.03;34.54;99829.89;146969;1147;104512;-77
2021/04/28 11:21:33;;;;;;;9.33;5.83;;;;;;;13.10;34.52;99828.17;146995;1148;104623;-77
2021/04/28 11:24:50;;;;;;;8.17;6.00;;;;;;;13.16;34.36;99822.09;147172;1147;104585;-77
2021/04/28 11:28:02;;;;;;;11.50;6.20;;;;;;;13.16;33.97;99828.30;147165;1147;104564;-77
2021/04/28 11:31:05;;;;;;;9.20;6.15;;;;;;;13.14;34.02;99830.33;146987;1148;104576;-77
2021/04/28 11:34:19;;;;;;;9.88;6.37;;;;;;;13.14;33.29;99816.08;147121;1147;104809;-79
2021/04/28 11:37:22;;;;;;;8.40;6.35;;;;;;;13.19;34.12;99816.38;147184;1147;104575;-77
2021/04/28 11:40:25;;;;;;;9.60;6.10;;;;;;;13.19;34.00;99807.52;147185;1147;104473;-77
2021/04/28 11:43:31;;;;;;;8.00;6.10;;;;;;;13.24;33.49;99808.64;147126;1147;104487;-79
2021/04/28 11:46:36;;;;;;;9.08;5.95;;;;;;;13.32;34.11;99800.55;147196;1147;104481;-78
2021/04/28 11:49:43;;;;;;;9.73;5.83;;;;;;;13.37;34.01;99801.84;147192;1148;104567;-77
2021/04/28 11:52:46;;;;;;;7.97;6.05;;;;;;;13.40;34.09;99801.49;147155;1148;104623;-80
2021/04/28 11:55:50;;;;;;;9.33;6.13;;;;;;;13.41;32.23;99795.10;147194;1147;104482;-77
2021/04/28 11:58:53;;;;;;;9.80;5.87;;;;;;;13.44;33.87;99794.75;147178;1148;104475;-77
2021/04/28 12:01:57;;;;;;;8.13;6.37;;;;;;;13.49;32.90;99789.66;147139;1147;104569;-76
2021/04/28 12:05:00;;;;;;;7.53;5.73;;;;;;;13.61;34.11;99782.02;147207;1148;104633;-77
2021/04/28 12:08:06;;;;;;;9.23;6.10;;;;;;;13.66;33.49;99775.05;147143;1147;104612;-77
2021/04/28 12:11:10;;;;;;;8.07;5.53;;;;;;;13.67;33.33;99773.23;147088;1147;104632;-77
2021/04/28 12:14:13;;;;;;;6.70;5.58;;;;;;;13.66;32.93;99774.23;147075;1147;104553;-80
2021/04/28 12:17:19;;;;;;;9.68;5.97;;;;;;;13.65;33.37;99776.09;147102;1147;104556;-77
2021/04/28 12:20:23;;;;;;;7.15;5.62;;;;;;;13.73;33.86;99764.44;147199;1148;104582;-80
2021/04/28 12:23:27;;;;;;;6.83;5.37;;;;;;;13.78;32.79;99763.87;147186;1146;104617;-77
2021/04/28 12:26:30;;;;;;;7.95;5.65;;;;;;;13.80;33.35;99754.64;147158;1148;104569;-77
2021/04/28 12:29:34;;;;;;;8.50;6.10;;;;;;;13.78;33.22;99755.83;147173;1147;104444;-77
2021/04/28 12:32:39;;;;;;;8.40;6.22;;;;;;;13.81;33.44;99753.60;147206;1147;104569;-76
2021/04/28 12:35:45;;;;;;;7.00;6.03;;;;;;;13.84;33.16;99752.42;147039;1148;104508;-77
2021/04/28 12:38:48;;;;;;;7.92;5.95;;;;;;;13.83;31.98;99742.70;147122;1147;104985;-77
2021/04/28 12:41:51;;;;;;;9.60;5.95;;;;;;;13.82;32.64;99747.23;147150;1148;104458;-79
2021/04/28 12:44:54;;;;;;;8.53;6.08;;;;;;;13.89;32.49;99748.13;147151;1147;104550;-79
2021/04/28 12:48:09;;;;;;;9.85;7.58;;;;;;;13.96;32.54;99744.73;147111;1148;104485;-79
2021/04/28 12:51:16;;;;;;;9.07;5.60;;;;;;;14.02;33.00;99742.11;147207;1148;104479;-78
2021/04/28 12:54:27;;;;;;;6.97;5.62;;;;;;;14.08;32.99;99740.52;147189;1147;104495;-77
2021/04/28 12:57:30;;;;;;;8.97;5.70;;;;;;;14.04;32.32;99740.06;147261;1147;104521;-78
2021/04/28 13:00:41;;;;;;;8.47;5.67;;;;;;;14.03;32.82;99732.20;146937;1148;104923;-77
2021/04/28 13:03:45;;;;;;;6.08;5.08;;;;;;;14.07;33.29;99726.29;147027;1147;104369;-77
2021/04/28 13:06:50;;;;;;;7.00;5.22;;;;;;;14.12;32.85;99715.80;147245;1147;104487;-78
2021/04/28 13:10:08;;;;;;;6.30;5.15;;;;;;;14.20;33.00;99722.08;147150;1148;104659;-77
2021/04/28 13:13:29;;;;;;;6.23;5.30;;;;;;;14.26;33.17;99707.90;147208;1147;104568;-76
2021/04/28 13:16:38;;;;;;;8.13;5.33;;;;;;;14.27;32.55;99712.25;147214;1147;104530;-79
2021/04/28 13:19:41;;;;;;;6.67;5.20;;;;;;;14.31;32.81;99713.53;147221;1147;104447;-76
2021/04/28 13:22:44;;;;;;;7.33;5.42;;;;;;;14.34;32.85;99705.94;147010;1147;104591;-77
2021/04/28 13:25:58;;;;;;;7.20;5.20;;;;;;;14.38;33.30;99702.88;147149;1147;105122;-77
2021/04/28 13:29:02;;;;;;;5.95;4.40;;;;;;;14.35;32.92;99704.08;147200;1148;104572;-79
2021/04/28 13:32:06;;;;;;;7.33;4.80;;;;;;;14.37;33.10;99690.47;147190;1147;104493;-77
2021/04/28 13:35:19;;;;;;;8.43;5.10;;;;;;;14.40;32.94;99682.05;147158;1147;104585;-77
2021/04/28 13:38:22;;;;;;;7.28;5.10;;;;;;;14.43;33.09;99677.09;147210;1148;104498;-77
2021/04/28 13:41:26;;;;;;;6.65;4.75;;;;;;;14.46;32.78;99673.22;147041;1148;104594;-78
2021/04/28 13:44:32;;;;;;;7.35;4.45;;;;;;;14.47;32.93;99678.41;147199;1147;104556;-80
2021/04/28 13:47:35;;;;;;;7.15;4.15;;;;;;;14.51;31.40;99676.98;147195;1147;104950;-79
2021/04/28 13:50:39;;;;;;;5.80;4.63;;;;;;;14.51;32.02;99670.77;147183;1147;104444;-77
2021/04/28 13:53:42;;;;;;;7.83;5.15;;;;;;;14.49;32.29;99667.45;147161;1147;104481;-78
2021/04/28 13:56:46;;;;;;;6.77;5.10;;;;;;;14.51;32.00;99666.25;147091;1148;104572;-77
2021/04/28 13:59:49;;;;;;;6.70;5.57;;;;;;;14.45;31.52;99667.03;147153;1148;104572;-77
2021/04/28 14:02:52;;;;;;;6.70;5.42;;;;;;;14.40;31.39;99663.26;147171;1147;104572;-77
2021/04/28 14:05:55;;;;;;;7.22;5.37;;;;;;;14.37;31.53;99656.41;147170;1148;104856;-78